sensor_id;sensor_type;location;lat;lon;timestamp;temperature;humidity
10536;DHT22;5316;49.538;8.352;2023-09-19T00:00:31;17.80;99.90
10536;DHT22;5316;49.538;8.352;2023-09-19T00:02:59;17.70;99.90
10536;DHT22;5316;49.538;8.352;2023-09-19T00:05:27;17.70;99.90
10536;DHT22;5316;49.538;8.352;2023-09-19T00:07:56;17.70;99.90
10536;DHT22;5316;49.538;8.352;2023-09-19T00:10:25;17.60;99.90
10536;DHT22;5316;49.538;8.352;2023-09-19T00:12:54;17.60;99.90
10536;DHT22;5316;49.538;8.352;2023-09-19T00:15:22;17.60;99.90
10536;DHT22;5316;49.538;8.352;2023-09-19T00:30:47;17.60;99.90
10536;DHT22;5316;49.538;8.352;2023-09-19T00:33:17;17.60;99.90
10536;DHT22;5316;49.538;8.352;2023-09-19T00:35:49;17.60;99.90
10536;DHT22;5316;49.538;8.352;2023-09-19T00:38:17;17.60;99.90
10536;DHT22;5316;49.538;8.352;2023-09-19T00:40:47;17.60;99.90
10536;DHT22;5316;49.538;8.352;2023-09-19T00:43:15;17.60;99.90
10536;DHT22;5316;49.538;8.352;2023-09-19T00:45:45;17.60;99.90
10536;DHT22;5316;49.538;8.352;2023-09-19T00:48:15;17.60;99.90
10536;DHT22;5316;49.538;8.352;2023-09-19T00:50:46;17.60;99.90
10536;DHT22;5316;49.538;8.352;2023-09-19T00:53:15;17.60;99.90
10536;DHT22;5316;49.538;8.352;2023-09-19T00:55:45;17.60;99.90
10536;DHT22;5316;49.538;8.352;2023-09-19T00:58:12;17.70;99.90
10536;DHT22;5316;49.538;8.352;2023-09-19T01:00:40;17.70;99.90
10536;DHT22;5316;49.538;8.352;2023-09-19T01:03:10;17.70;99.90
10536;DHT22;5316;49.538;8.352;2023-09-19T01:05:40;17.70;99.90
10536;DHT22;5316;49.538;8.352;2023-09-19T01:08:07;17.70;99.90
10536;DHT22;5316;49.538;8.352;2023-09-19T01:10:43;17.70;99.90
10536;DHT22;5316;49.538;8.352;2023-09-19T01:13:19;17.80;99.90
10536;DHT22;5316;49.538;8.352;2023-09-19T01:15:55;17.80;99.90
10536;DHT22;5316;49.538;8.352;2023-09-19T01:18:32;17.80;99.90
10536;DHT22;5316;49.538;8.352;2023-09-19T01:21:13;17.90;99.90
10536;DHT22;5316;49.538;8.352;2023-09-19T01:27:00;17.90;99.90
10536;DHT22;5316;49.538;8.352;2023-09-19T04:27:40;17.00;1.00
10536;DHT22;5316;49.538;8.352;2023-09-19T04:30:08;17.00;1.00
10536;DHT22;5316;49.538;8.352;2023-09-19T04:32:38;17.00;1.00
10536;DHT22;5316;49.538;8.352;2023-09-19T04:35:06;16.90;1.00
10536;DHT22;5316;49.538;8.352;2023-09-19T04:37:35;16.90;1.00
10536;DHT22;5316;49.538;8.352;2023-09-19T04:40:04;16.90;1.00
10536;DHT22;5316;49.538;8.352;2023-09-19T04:42:32;16.90;1.00
10536;DHT22;5316;49.538;8.352;2023-09-19T04:45:00;16.90;99.90
10536;DHT22;5316;49.538;8.352;2023-09-19T04:47:27;16.90;99.90
10536;DHT22;5316;49.538;8.352;2023-09-19T04:49:53;17.00;99.90
10536;DHT22;5316;49.538;8.352;2023-09-19T04:52:22;17.00;99.90
10536;DHT22;5316;49.538;8.352;2023-09-19T04:54:48;16.90;99.90
10536;DHT22;5316;49.538;8.352;2023-09-19T04:57:15;16.90;99.90
10536;DHT22;5316;49.538;8.352;2023-09-19T04:59:42;17.00;99.90
10536;DHT22;5316;49.538;8.352;2023-09-19T05:02:10;17.00;99.90
10536;DHT22;5316;49.538;8.352;2023-09-19T05:04:37;17.00;99.90
10536;DHT22;5316;49.538;8.352;2023-09-19T05:07:04;17.00;99.90
10536;DHT22;5316;49.538;8.352;2023-09-19T05:09:31;17.00;99.90
10536;DHT22;5316;49.538;8.352;2023-09-19T05:12:00;17.10;99.90
10536;DHT22;5316;49.538;8.352;2023-09-19T05:14:27;17.10;99.90
10536;DHT22;5316;49.538;8.352;2023-09-19T05:16:54;17.00;99.90
10536;DHT22;5316;49.538;8.352;2023-09-19T05:19:22;17.20;99.90
10536;DHT22;5316;49.538;8.352;2023-09-19T05:21:49;17.20;99.90
10536;DHT22;5316;49.538;8.352;2023-09-19T05:24:16;17.20;99.90
10536;DHT22;5316;49.538;8.352;2023-09-19T05:26:44;17.20;99.90
10536;DHT22;5316;49.538;8.352;2023-09-19T05:29:11;17.20;99.90
10536;DHT22;5316;49.538;8.352;2023-09-19T05:31:39;17.10;99.90
10536;DHT22;5316;49.538;8.352;2023-09-19T05:34:08;17.10;99.90
10536;DHT22;5316;49.538;8.352;2023-09-19T05:36:36;17.00;99.90
10536;DHT22;5316;49.538;8.352;2023-09-19T05:39:05;17.00;99.90
10536;DHT22;5316;49.538;8.352;2023-09-19T05:41:34;17.00;99.90
10536;DHT22;5316;49.538;8.352;2023-09-19T05:44:02;17.10;99.90
10536;DHT22;5316;49.538;8.352;2023-09-19T05:46:29;16.90;99.90
10536;DHT22;5316;49.538;8.352;2023-09-19T05:48:55;17.00;99.90
10536;DHT22;5316;49.538;8.352;2023-09-19T05:51:22;17.00;99.90
10536;DHT22;5316;49.538;8.352;2023-09-19T05:53:51;17.00;99.90
10536;DHT22;5316;49.538;8.352;2023-09-19T05:56:20;17.00;99.90
10536;DHT22;5316;49.538;8.352;2023-09-19T05:58:47;17.00;99.90
10536;DHT22;5316;49.538;8.352;2023-09-19T06:01:15;17.00;99.90
10536;DHT22;5316;49.538;8.352;2023-09-19T06:03:42;17.00;99.90
10536;DHT22;5316;49.538;8.352;2023-09-19T06:06:08;17.10;99.90
10536;DHT22;5316;49.538;8.352;2023-09-19T06:08:35;17.30;99.90
10536;DHT22;5316;49.538;8.352;2023-09-19T06:11:04;17.20;99.90
10536;DHT22;5316;49.538;8.352;2023-09-19T06:13:33;17.20;99.90
10536;DHT22;5316;49.538;8.352;2023-09-19T06:16:00;17.20;99.90
10536;DHT22;5316;49.538;8.352;2023-09-19T06:18:30;17.30;99.90
10536;DHT22;5316;49.538;8.352;2023-09-19T06:20:59;17.30;99.90
10536;DHT22;5316;49.538;8.352;2023-09-19T06:23:33;17.20;99.90
10536;DHT22;5316;49.538;8.352;2023-09-19T06:26:00;17.30;99.90
10536;DHT22;5316;49.538;8.352;2023-09-19T06:28:28;17.30;99.90
10536;DHT22;5316;49.538;8.352;2023-09-19T06:30:55;17.30;99.90
10536;DHT22;5316;49.538;8.352;2023-09-19T06:33:22;17.30;1.00
10536;DHT22;5316;49.538;8.352;2023-09-19T06:35:54;17.30;1.00
10536;DHT22;5316;49.538;8.352;2023-09-19T06:38:24;17.30;1.00
10536;DHT22;5316;49.538;8.352;2023-09-19T06:40:51;17.30;99.90
10536;DHT22;5316;49.538;8.352;2023-09-19T06:43:20;17.30;99.90
10536;DHT22;5316;49.538;8.352;2023-09-19T06:45:48;17.30;46.90
10536;DHT22;5316;49.538;8.352;2023-09-19T06:48:16;17.30;99.90
10536;DHT22;5316;49.538;8.352;2023-09-19T06:50:44;17.30;1.00
10536;DHT22;5316;49.538;8.352;2023-09-19T06:53:11;17.40;1.00
10536;DHT22;5316;49.538;8.352;2023-09-19T06:55:37;17.40;1.00
10536;DHT22;5316;49.538;8.352;2023-09-19T06:58:04;17.40;99.90
10536;DHT22;5316;49.538;8.352;2023-09-19T07:00:32;17.40;1.00
10536;DHT22;5316;49.538;8.352;2023-09-19T07:03:02;17.50;1.00
10536;DHT22;5316;49.538;8.352;2023-09-19T07:05:36;17.60;1.00
10536;DHT22;5316;49.538;8.352;2023-09-19T07:08:03;17.60;99.90
10536;DHT22;5316;49.538;8.352;2023-09-19T07:10:30;17.60;1.00
10536;DHT22;5316;49.538;8.352;2023-09-19T07:12:58;17.70;99.90
10536;DHT22;5316;49.538;8.352;2023-09-19T07:15:26;17.70;19.70
10536;DHT22;5316;49.538;8.352;2023-09-19T07:17:53;17.70;99.90
10536;DHT22;5316;49.538;8.352;2023-09-19T07:20:24;17.80;99.90
10536;DHT22;5316;49.538;8.352;2023-09-19T07:22:52;17.90;1.00
10536;DHT22;5316;49.538;8.352;2023-09-19T07:25:20;17.90;1.00
10536;DHT22;5316;49.538;8.352;2023-09-19T07:27:48;17.90;99.90
10536;DHT22;5316;49.538;8.352;2023-09-19T07:32:44;18.00;11.00
10536;DHT22;5316;49.538;8.352;2023-09-19T07:35:12;18.10;99.90
10536;DHT22;5316;49.538;8.352;2023-09-19T07:37:40;18.20;99.90
10536;DHT22;5316;49.538;8.352;2023-09-19T07:40:07;18.20;53.80
10536;DHT22;5316;49.538;8.352;2023-09-19T07:42:35;18.30;99.90
10536;DHT22;5316;49.538;8.352;2023-09-19T07:45:02;18.40;99.90
10536;DHT22;5316;49.538;8.352;2023-09-19T07:47:29;18.40;1.00
10536;DHT22;5316;49.538;8.352;2023-09-19T07:49:58;18.40;99.90
10536;DHT22;5316;49.538;8.352;2023-09-19T07:52:25;18.50;99.90
10536;DHT22;5316;49.538;8.352;2023-09-19T07:54:54;18.50;99.90
10536;DHT22;5316;49.538;8.352;2023-09-19T07:57:22;18.60;1.00
10536;DHT22;5316;49.538;8.352;2023-09-19T07:59:50;18.60;1.00
10536;DHT22;5316;49.538;8.352;2023-09-19T08:02:17;18.70;1.00
10536;DHT22;5316;49.538;8.352;2023-09-19T08:04:45;18.70;1.00
10536;DHT22;5316;49.538;8.352;2023-09-19T08:07:12;18.80;1.00
10536;DHT22;5316;49.538;8.352;2023-09-19T08:09:39;18.80;27.70
10536;DHT22;5316;49.538;8.352;2023-09-19T08:12:08;18.80;99.90
10536;DHT22;5316;49.538;8.352;2023-09-19T08:14:36;18.80;1.00
10536;DHT22;5316;49.538;8.352;2023-09-19T08:17:07;18.70;1.00
10536;DHT22;5316;49.538;8.352;2023-09-19T08:19:34;18.60;1.00
10536;DHT22;5316;49.538;8.352;2023-09-19T08:22:02;18.60;1.00
10536;DHT22;5316;49.538;8.352;2023-09-19T08:24:29;18.60;1.00
10536;DHT22;5316;49.538;8.352;2023-09-19T08:26:58;18.50;1.00
10536;DHT22;5316;49.538;8.352;2023-09-19T08:29:27;18.40;99.90
10536;DHT22;5316;49.538;8.352;2023-09-19T08:31:55;18.50;91.00
10536;DHT22;5316;49.538;8.352;2023-09-19T08:34:22;18.60;1.00
10536;DHT22;5316;49.538;8.352;2023-09-19T08:36:50;18.50;1.00
10536;DHT22;5316;49.538;8.352;2023-09-19T08:39:18;18.50;99.90
10536;DHT22;5316;49.538;8.352;2023-09-19T08:41:45;18.40;99.90
10536;DHT22;5316;49.538;8.352;2023-09-19T08:44:14;18.40;1.00
10536;DHT22;5316;49.538;8.352;2023-09-19T08:46:44;18.40;1.00
10536;DHT22;5316;49.538;8.352;2023-09-19T08:49:17;18.40;1.00
10536;DHT22;5316;49.538;8.352;2023-09-19T08:51:53;18.40;1.00
10536;DHT22;5316;49.538;8.352;2023-09-19T08:54:24;18.40;5.30
10536;DHT22;5316;49.538;8.352;2023-09-19T08:56:54;18.40;1.00
10536;DHT22;5316;49.538;8.352;2023-09-19T08:59:22;18.50;1.00
10536;DHT22;5316;49.538;8.352;2023-09-19T09:01:54;18.50;1.00
10536;DHT22;5316;49.538;8.352;2023-09-19T09:04:22;18.60;1.00
10536;DHT22;5316;49.538;8.352;2023-09-19T09:06:51;18.70;1.00
10536;DHT22;5316;49.538;8.352;2023-09-19T09:09:20;18.80;1.00
10536;DHT22;5316;49.538;8.352;2023-09-19T09:11:48;18.80;1.00
10536;DHT22;5316;49.538;8.352;2023-09-19T09:14:19;18.80;1.00
10536;DHT22;5316;49.538;8.352;2023-09-19T09:16:47;18.80;1.00
10536;DHT22;5316;49.538;8.352;2023-09-19T09:19:17;18.70;1.00
10536;DHT22;5316;49.538;8.352;2023-09-19T09:21:50;18.70;1.00
10536;DHT22;5316;49.538;8.352;2023-09-19T09:24:27;18.80;99.90
10536;DHT22;5316;49.538;8.352;2023-09-19T09:26:56;18.70;99.90
10536;DHT22;5316;49.538;8.352;2023-09-19T09:29:42;18.70;1.00
10536;DHT22;5316;49.538;8.352;2023-09-19T09:32:24;18.70;1.00
10536;DHT22;5316;49.538;8.352;2023-09-19T09:34:57;18.50;1.00
10536;DHT22;5316;49.538;8.352;2023-09-19T09:37:28;18.50;1.00
10536;DHT22;5316;49.538;8.352;2023-09-19T09:40:00;18.50;1.00
10536;DHT22;5316;49.538;8.352;2023-09-19T09:42:49;18.50;1.00
10536;DHT22;5316;49.538;8.352;2023-09-19T09:45:25;18.50;1.00
10536;DHT22;5316;49.538;8.352;2023-09-19T09:48:14;18.60;1.00
10536;DHT22;5316;49.538;8.352;2023-09-19T09:50:48;18.80;1.00
10536;DHT22;5316;49.538;8.352;2023-09-19T09:53:22;18.90;1.00
10536;DHT22;5316;49.538;8.352;2023-09-19T09:55:58;19.10;1.00
10536;DHT22;5316;49.538;8.352;2023-09-19T09:58:26;19.20;1.00
10536;DHT22;5316;49.538;8.352;2023-09-19T10:00:56;19.20;1.00
10536;DHT22;5316;49.538;8.352;2023-09-19T10:03:33;19.30;1.00
10536;DHT22;5316;49.538;8.352;2023-09-19T10:06:06;19.40;1.00
10536;DHT22;5316;49.538;8.352;2023-09-19T10:09:09;19.40;1.00
10536;DHT22;5316;49.538;8.352;2023-09-19T10:11:43;19.40;1.00
10536;DHT22;5316;49.538;8.352;2023-09-19T10:14:12;19.50;1.00
10536;DHT22;5316;49.538;8.352;2023-09-19T10:16:43;19.60;1.00
10536;DHT22;5316;49.538;8.352;2023-09-19T10:19:23;19.70;99.90
10536;DHT22;5316;49.538;8.352;2023-09-19T10:22:07;19.70;99.90
10536;DHT22;5316;49.538;8.352;2023-09-19T10:24:41;19.70;99.90
10536;DHT22;5316;49.538;8.352;2023-09-19T10:27:12;19.70;1.00
10536;DHT22;5316;49.538;8.352;2023-09-19T10:29:45;19.70;99.90
10536;DHT22;5316;49.538;8.352;2023-09-19T10:32:18;19.80;99.90
10536;DHT22;5316;49.538;8.352;2023-09-19T10:34:47;19.80;99.90
10536;DHT22;5316;49.538;8.352;2023-09-19T10:37:16;19.90;99.90
10536;DHT22;5316;49.538;8.352;2023-09-19T10:39:46;19.90;99.90
10536;DHT22;5316;49.538;8.352;2023-09-19T10:42:20;20.00;99.90
10536;DHT22;5316;49.538;8.352;2023-09-19T10:44:50;20.10;99.90
10536;DHT22;5316;49.538;8.352;2023-09-19T10:47:19;20.20;99.90
10536;DHT22;5316;49.538;8.352;2023-09-19T10:49:50;20.30;90.50
10536;DHT22;5316;49.538;8.352;2023-09-19T10:52:22;20.40;79.70
10536;DHT22;5316;49.538;8.352;2023-09-19T10:54:52;20.50;91.40
10536;DHT22;5316;49.538;8.352;2023-09-19T10:57:23;20.60;59.30
10536;DHT22;5316;49.538;8.352;2023-09-19T11:00:06;20.60;1.00
10536;DHT22;5316;49.538;8.352;2023-09-19T11:03:17;20.70;1.00
10536;DHT22;5316;49.538;8.352;2023-09-19T11:06:10;20.70;13.10
10536;DHT22;5316;49.538;8.352;2023-09-19T11:09:00;20.80;1.00
10536;DHT22;5316;49.538;8.352;2023-09-19T11:11:49;20.90;1.00
10536;DHT22;5316;49.538;8.352;2023-09-19T11:14:30;21.00;1.00
10536;DHT22;5316;49.538;8.352;2023-09-19T11:20:21;20.90;1.00
10536;DHT22;5316;49.538;8.352;2023-09-19T11:23:23;20.80;1.00
10536;DHT22;5316;49.538;8.352;2023-09-19T11:25:53;20.80;1.00
10536;DHT22;5316;49.538;8.352;2023-09-19T11:28:33;20.90;1.00
10536;DHT22;5316;49.538;8.352;2023-09-19T11:31:41;21.00;1.00
10536;DHT22;5316;49.538;8.352;2023-09-19T11:34:37;21.00;1.00
10536;DHT22;5316;49.538;8.352;2023-09-19T11:40:38;21.30;1.00
10536;DHT22;5316;49.538;8.352;2023-09-19T11:43:31;21.50;1.00
10536;DHT22;5316;49.538;8.352;2023-09-19T11:46:06;21.50;1.00
10536;DHT22;5316;49.538;8.352;2023-09-19T11:48:34;21.60;1.00
10536;DHT22;5316;49.538;8.352;2023-09-19T11:51:11;21.60;1.00
10536;DHT22;5316;49.538;8.352;2023-09-19T11:53:45;21.50;1.00
10536;DHT22;5316;49.538;8.352;2023-09-19T11:56:14;21.60;1.00
10536;DHT22;5316;49.538;8.352;2023-09-19T11:58:44;21.70;1.00
10536;DHT22;5316;49.538;8.352;2023-09-19T12:01:16;21.60;1.00
10536;DHT22;5316;49.538;8.352;2023-09-19T12:03:53;21.50;1.00
10536;DHT22;5316;49.538;8.352;2023-09-19T12:06:20;21.50;1.00
10536;DHT22;5316;49.538;8.352;2023-09-19T12:08:48;21.50;1.00
10536;DHT22;5316;49.538;8.352;2023-09-19T12:11:17;21.60;1.00
10536;DHT22;5316;49.538;8.352;2023-09-19T12:13:47;21.60;1.00
10536;DHT22;5316;49.538;8.352;2023-09-19T12:16:16;21.70;1.00
10536;DHT22;5316;49.538;8.352;2023-09-19T12:18:44;21.60;1.00
10536;DHT22;5316;49.538;8.352;2023-09-19T12:21:29;21.70;1.00
10536;DHT22;5316;49.538;8.352;2023-09-19T12:23:58;21.70;1.00
10536;DHT22;5316;49.538;8.352;2023-09-19T12:26:26;21.70;1.00
10536;DHT22;5316;49.538;8.352;2023-09-19T12:28:56;21.80;1.00
10536;DHT22;5316;49.538;8.352;2023-09-19T12:34:52;21.80;1.00
10536;DHT22;5316;49.538;8.352;2023-09-19T12:37:22;21.80;1.00
10536;DHT22;5316;49.538;8.352;2023-09-19T12:40:05;21.80;1.00
10536;DHT22;5316;49.538;8.352;2023-09-19T12:42:44;21.90;1.00
10536;DHT22;5316;49.538;8.352;2023-09-19T12:45:14;21.90;1.00
10536;DHT22;5316;49.538;8.352;2023-09-19T12:51:03;21.80;1.00
10536;DHT22;5316;49.538;8.352;2023-09-19T12:53:40;21.70;1.00
10536;DHT22;5316;49.538;8.352;2023-09-19T12:56:13;21.80;1.00
10536;DHT22;5316;49.538;8.352;2023-09-19T12:58:54;21.90;1.00
10536;DHT22;5316;49.538;8.352;2023-09-19T13:01:37;22.30;1.00
10536;DHT22;5316;49.538;8.352;2023-09-19T13:04:14;22.60;1.00
10536;DHT22;5316;49.538;8.352;2023-09-19T13:06:44;22.80;1.00
10536;DHT22;5316;49.538;8.352;2023-09-19T13:09:16;22.90;1.00
10536;DHT22;5316;49.538;8.352;2023-09-19T13:11:52;23.00;1.00
10536;DHT22;5316;49.538;8.352;2023-09-19T13:14:32;23.10;1.00
10536;DHT22;5316;49.538;8.352;2023-09-19T13:17:14;23.10;1.00
10536;DHT22;5316;49.538;8.352;2023-09-19T13:19:50;23.10;1.00
10536;DHT22;5316;49.538;8.352;2023-09-19T13:22:39;23.30;1.00
10536;DHT22;5316;49.538;8.352;2023-09-19T13:25:25;23.60;1.00
10536;DHT22;5316;49.538;8.352;2023-09-19T13:28:08;23.90;1.00
10536;DHT22;5316;49.538;8.352;2023-09-19T13:30:39;23.70;99.90
10536;DHT22;5316;49.538;8.352;2023-09-19T13:33:11;23.70;99.90
10536;DHT22;5316;49.538;8.352;2023-09-19T13:35:45;23.80;99.90
10536;DHT22;5316;49.538;8.352;2023-09-19T13:38:14;23.80;99.90
10536;DHT22;5316;49.538;8.352;2023-09-19T13:40:41;23.90;99.90
10536;DHT22;5316;49.538;8.352;2023-09-19T13:43:08;23.90;1.00
10536;DHT22;5316;49.538;8.352;2023-09-19T13:45:36;24.00;1.00
10536;DHT22;5316;49.538;8.352;2023-09-19T13:48:04;24.00;99.90
10536;DHT22;5316;49.538;8.352;2023-09-19T13:50:34;23.80;99.90
10536;DHT22;5316;49.538;8.352;2023-09-19T13:53:02;23.80;1.00
10536;DHT22;5316;49.538;8.352;2023-09-19T13:55:29;23.90;1.00
10536;DHT22;5316;49.538;8.352;2023-09-19T13:57:57;24.10;99.90
10536;DHT22;5316;49.538;8.352;2023-09-19T14:00:24;24.00;99.90
10536;DHT22;5316;49.538;8.352;2023-09-19T14:02:52;23.80;1.00
10536;DHT22;5316;49.538;8.352;2023-09-19T14:05:19;23.70;1.00
10536;DHT22;5316;49.538;8.352;2023-09-19T14:07:48;23.70;1.00
10536;DHT22;5316;49.538;8.352;2023-09-19T14:10:15;23.90;1.00
10536;DHT22;5316;49.538;8.352;2023-09-19T14:12:45;24.10;99.90
10536;DHT22;5316;49.538;8.352;2023-09-19T14:15:12;24.00;99.90
10536;DHT22;5316;49.538;8.352;2023-09-19T14:17:38;23.90;1.00
10536;DHT22;5316;49.538;8.352;2023-09-19T14:20:06;23.80;1.00
10536;DHT22;5316;49.538;8.352;2023-09-19T14:22:33;23.80;1.00
10536;DHT22;5316;49.538;8.352;2023-09-19T14:25:02;23.80;1.00
10536;DHT22;5316;49.538;8.352;2023-09-19T14:27:29;23.70;1.00
10536;DHT22;5316;49.538;8.352;2023-09-19T14:29:56;23.90;1.00
10536;DHT22;5316;49.538;8.352;2023-09-19T14:32:24;23.70;1.00
10536;DHT22;5316;49.538;8.352;2023-09-19T14:34:55;23.50;1.00
10536;DHT22;5316;49.538;8.352;2023-09-19T14:37:22;23.50;1.00
10536;DHT22;5316;49.538;8.352;2023-09-19T14:39:49;23.30;1.00
10536;DHT22;5316;49.538;8.352;2023-09-19T14:42:18;23.30;1.00
10536;DHT22;5316;49.538;8.352;2023-09-19T14:44:45;23.40;1.00
10536;DHT22;5316;49.538;8.352;2023-09-19T14:47:13;23.50;1.00
10536;DHT22;5316;49.538;8.352;2023-09-19T14:49:40;23.70;1.00
10536;DHT22;5316;49.538;8.352;2023-09-19T14:52:09;23.90;1.00
10536;DHT22;5316;49.538;8.352;2023-09-19T14:54:37;23.80;1.00
10536;DHT22;5316;49.538;8.352;2023-09-19T14:57:07;23.70;1.00
10536;DHT22;5316;49.538;8.352;2023-09-19T14:59:36;23.80;1.00
10536;DHT22;5316;49.538;8.352;2023-09-19T15:02:03;23.90;1.00
10536;DHT22;5316;49.538;8.352;2023-09-19T15:04:30;24.00;1.00
10536;DHT22;5316;49.538;8.352;2023-09-19T15:06:59;24.30;1.00
10536;DHT22;5316;49.538;8.352;2023-09-19T15:09:28;24.60;1.00
10536;DHT22;5316;49.538;8.352;2023-09-19T15:11:57;25.00;1.00
10536;DHT22;5316;49.538;8.352;2023-09-19T15:14:24;25.20;99.90
10536;DHT22;5316;49.538;8.352;2023-09-19T15:16:53;25.20;99.90
10536;DHT22;5316;49.538;8.352;2023-09-19T15:19:20;25.30;99.90
10536;DHT22;5316;49.538;8.352;2023-09-19T15:21:48;25.50;99.90
10536;DHT22;5316;49.538;8.352;2023-09-19T15:24:17;25.50;99.90
10536;DHT22;5316;49.538;8.352;2023-09-19T15:26:45;25.30;99.90
10536;DHT22;5316;49.538;8.352;2023-09-19T15:29:13;25.00;99.90
10536;DHT22;5316;49.538;8.352;2023-09-19T15:31:41;25.00;99.90
10536;DHT22;5316;49.538;8.352;2023-09-19T15:34:09;25.00;99.90
10536;DHT22;5316;49.538;8.352;2023-09-19T15:36:39;25.20;99.90
10536;DHT22;5316;49.538;8.352;2023-09-19T15:39:07;25.30;99.90
10536;DHT22;5316;49.538;8.352;2023-09-19T15:41:37;25.40;99.90
10536;DHT22;5316;49.538;8.352;2023-09-19T15:44:11;25.30;99.90
10536;DHT22;5316;49.538;8.352;2023-09-19T15:46:39;25.30;99.90
10536;DHT22;5316;49.538;8.352;2023-09-19T15:49:06;25.20;99.90
10536;DHT22;5316;49.538;8.352;2023-09-19T15:51:35;25.30;99.90
10536;DHT22;5316;49.538;8.352;2023-09-19T15:54:07;24.90;99.90
10536;DHT22;5316;49.538;8.352;2023-09-19T15:56:34;24.70;99.90
10536;DHT22;5316;49.538;8.352;2023-09-19T15:59:02;24.30;99.90
10536;DHT22;5316;49.538;8.352;2023-09-19T16:01:29;24.10;1.00
10536;DHT22;5316;49.538;8.352;2023-09-19T16:04:10;23.90;1.00
10536;DHT22;5316;49.538;8.352;2023-09-19T16:06:39;23.90;1.00
10536;DHT22;5316;49.538;8.352;2023-09-19T16:09:08;24.00;1.00
10536;DHT22;5316;49.538;8.352;2023-09-19T16:11:36;24.30;1.00
10536;DHT22;5316;49.538;8.352;2023-09-19T16:14:03;24.80;1.00
10536;DHT22;5316;49.538;8.352;2023-09-19T16:16:31;25.20;1.00
10536;DHT22;5316;49.538;8.352;2023-09-19T16:19:01;25.60;1.00
10536;DHT22;5316;49.538;8.352;2023-09-19T16:21:31;25.90;99.90
10536;DHT22;5316;49.538;8.352;2023-09-19T16:24:00;26.30;99.90
10536;DHT22;5316;49.538;8.352;2023-09-19T16:26:28;26.70;99.90
10536;DHT22;5316;49.538;8.352;2023-09-19T16:28:57;26.80;99.90
10536;DHT22;5316;49.538;8.352;2023-09-19T16:31:26;26.70;99.90
10536;DHT22;5316;49.538;8.352;2023-09-19T16:33:54;26.70;99.90
10536;DHT22;5316;49.538;8.352;2023-09-19T16:36:22;26.60;99.90
10536;DHT22;5316;49.538;8.352;2023-09-19T16:38:50;26.30;99.90
10536;DHT22;5316;49.538;8.352;2023-09-19T16:41:19;26.20;99.90
10536;DHT22;5316;49.538;8.352;2023-09-19T16:43:47;25.70;99.90
10536;DHT22;5316;49.538;8.352;2023-09-19T16:46:15;25.50;99.90
10536;DHT22;5316;49.538;8.352;2023-09-19T16:48:43;24.90;99.90
10536;DHT22;5316;49.538;8.352;2023-09-19T16:51:13;24.50;1.00
10536;DHT22;5316;49.538;8.352;2023-09-19T16:53:42;24.30;1.00
10536;DHT22;5316;49.538;8.352;2023-09-19T16:56:12;24.00;1.00
10536;DHT22;5316;49.538;8.352;2023-09-19T16:58:43;23.70;1.00
10536;DHT22;5316;49.538;8.352;2023-09-19T17:01:12;23.50;1.00
10536;DHT22;5316;49.538;8.352;2023-09-19T17:03:40;23.20;1.00
10536;DHT22;5316;49.538;8.352;2023-09-19T17:06:10;22.90;1.00
10536;DHT22;5316;49.538;8.352;2023-09-19T17:08:38;22.70;1.00
10536;DHT22;5316;49.538;8.352;2023-09-19T17:11:08;22.50;1.00
10536;DHT22;5316;49.538;8.352;2023-09-19T17:13:35;22.40;1.00
10536;DHT22;5316;49.538;8.352;2023-09-19T17:16:05;22.30;5.40
10536;DHT22;5316;49.538;8.352;2023-09-19T17:18:33;22.30;31.30
10536;DHT22;5316;49.538;8.352;2023-09-19T17:21:01;22.30;30.60
10536;DHT22;5316;49.538;8.352;2023-09-19T17:23:30;22.30;32.50
10536;DHT22;5316;49.538;8.352;2023-09-19T17:26:13;22.20;86.00
10536;DHT22;5316;49.538;8.352;2023-09-19T17:28:43;22.20;99.80
10536;DHT22;5316;49.538;8.352;2023-09-19T17:31:16;22.10;99.90
10536;DHT22;5316;49.538;8.352;2023-09-19T17:33:45;22.00;99.90
10536;DHT22;5316;49.538;8.352;2023-09-19T17:36:22;21.90;99.90
10536;DHT22;5316;49.538;8.352;2023-09-19T17:38:50;21.80;99.90
10536;DHT22;5316;49.538;8.352;2023-09-19T17:41:19;21.80;99.90
10536;DHT22;5316;49.538;8.352;2023-09-19T17:43:52;21.60;99.90
10536;DHT22;5316;49.538;8.352;2023-09-19T17:46:21;21.50;99.90
10536;DHT22;5316;49.538;8.352;2023-09-19T17:48:52;21.50;99.90
10536;DHT22;5316;49.538;8.352;2023-09-19T17:51:19;21.40;99.90
10536;DHT22;5316;49.538;8.352;2023-09-19T17:53:47;21.30;99.90
10536;DHT22;5316;49.538;8.352;2023-09-19T17:56:16;21.30;99.90
10536;DHT22;5316;49.538;8.352;2023-09-19T17:58:46;21.20;1.00
10536;DHT22;5316;49.538;8.352;2023-09-19T18:01:16;21.10;1.00
10536;DHT22;5316;49.538;8.352;2023-09-19T18:03:47;21.10;1.00
10536;DHT22;5316;49.538;8.352;2023-09-19T18:06:14;21.00;1.00
10536;DHT22;5316;49.538;8.352;2023-09-19T18:08:42;20.90;1.00
10536;DHT22;5316;49.538;8.352;2023-09-19T18:11:12;20.90;1.00
10536;DHT22;5316;49.538;8.352;2023-09-19T18:13:42;20.80;1.00
10536;DHT22;5316;49.538;8.352;2023-09-19T18:16:10;20.80;1.00
10536;DHT22;5316;49.538;8.352;2023-09-19T18:18:37;20.70;1.00
10536;DHT22;5316;49.538;8.352;2023-09-19T18:21:05;20.70;1.00
10536;DHT22;5316;49.538;8.352;2023-09-19T18:23:33;20.60;1.00
10536;DHT22;5316;49.538;8.352;2023-09-19T18:26:01;20.60;1.00
10536;DHT22;5316;49.538;8.352;2023-09-19T18:28:30;20.50;1.00
10536;DHT22;5316;49.538;8.352;2023-09-19T18:30:58;20.50;1.00
10536;DHT22;5316;49.538;8.352;2023-09-19T18:33:26;20.50;10.90
10536;DHT22;5316;49.538;8.352;2023-09-19T18:35:53;20.40;11.10
10536;DHT22;5316;49.538;8.352;2023-09-19T18:38:29;20.40;1.00
10536;DHT22;5316;49.538;8.352;2023-09-19T18:40:56;20.40;57.70
10536;DHT22;5316;49.538;8.352;2023-09-19T18:43:22;20.30;36.50
10536;DHT22;5316;49.538;8.352;2023-09-19T18:45:55;20.30;72.20
10536;DHT22;5316;49.538;8.352;2023-09-19T18:48:22;20.30;99.90
10536;DHT22;5316;49.538;8.352;2023-09-19T18:50:48;20.20;83.30
10536;DHT22;5316;49.538;8.352;2023-09-19T18:53:16;20.20;99.90
10536;DHT22;5316;49.538;8.352;2023-09-19T18:55:45;20.10;99.90
10536;DHT22;5316;49.538;8.352;2023-09-19T18:58:12;20.10;99.90
10536;DHT22;5316;49.538;8.352;2023-09-19T19:00:39;20.20;99.90
10536;DHT22;5316;49.538;8.352;2023-09-19T19:03:06;20.10;99.90
10536;DHT22;5316;49.538;8.352;2023-09-19T19:05:34;20.10;79.50
10536;DHT22;5316;49.538;8.352;2023-09-19T19:08:02;20.10;99.90
10536;DHT22;5316;49.538;8.352;2023-09-19T19:10:30;20.10;92.20
10536;DHT22;5316;49.538;8.352;2023-09-19T19:12:59;20.10;1.00
10536;DHT22;5316;49.538;8.352;2023-09-19T19:15:26;20.10;1.00
10536;DHT22;5316;49.538;8.352;2023-09-19T19:17:53;20.10;1.00
10536;DHT22;5316;49.538;8.352;2023-09-19T19:20:20;20.10;1.00
10536;DHT22;5316;49.538;8.352;2023-09-19T19:22:50;20.10;1.00
10536;DHT22;5316;49.538;8.352;2023-09-19T19:25:17;20.00;1.00
10536;DHT22;5316;49.538;8.352;2023-09-19T19:27:44;20.00;1.00
10536;DHT22;5316;49.538;8.352;2023-09-19T19:32:49;20.00;1.00
10536;DHT22;5316;49.538;8.352;2023-09-19T19:35:24;20.00;1.00
10536;DHT22;5316;49.538;8.352;2023-09-19T19:37:54;20.00;1.00
10536;DHT22;5316;49.538;8.352;2023-09-19T19:40:21;19.90;11.80
10536;DHT22;5316;49.538;8.352;2023-09-19T19:42:51;19.90;44.90
10536;DHT22;5316;49.538;8.352;2023-09-19T19:45:37;19.80;80.30
10536;DHT22;5316;49.538;8.352;2023-09-19T19:48:13;19.80;70.30